Volga, Iowa
Current Conditions -  °F | °C
As of 11:55 PM on Wednesday 22 Oct 2014 (Local Time) from KOLZ Reporting Station
Scattered Clouds Scattered Clouds  
Wind Chill: 52°   Ceiling: Unl
Heat Index: 52°   Visibility: 10mi
Dew Point: 39°   Wind: 14mph
Humidity: 62%   Direction: 160°SSE
Pressure: 30.14"   Gusts: NA
Location:  42.8°N, 91.54°W
Report Text: KOLZ 230455Z AUTO 16012KT 10SM SCT034 SCT060 SCT100 11/04 A3014 RMK AO2
Loading
Personal Weather Stations






























Interactive Weather Map
Tropical Storm Tracking
New forecast layout! Learn more

10-Day Weather Forecast

Advertisements
Track Severe Weather on mobile